sensor_id;sensor_type;location;lat;lon;timestamp;temperature;humidity
64599;SHT31;51008;51.504;11.548;2024-03-08T00:03:43;-1.99;93.68
64599;SHT31;51008;51.504;11.548;2024-03-08T00:08:44;-2.03;93.79
64599;SHT31;51008;51.504;11.548;2024-03-08T00:13:46;-2.10;93.97
64599;SHT31;51008;51.504;11.548;2024-03-08T00:18:46;-2.10;94.11
64599;SHT31;51008;51.504;11.548;2024-03-08T00:23:47;-2.16;93.98
64599;SHT31;51008;51.504;11.548;2024-03-08T00:28:48;-2.16;94.38
64599;SHT31;51008;51.504;11.548;2024-03-08T00:33:50;-2.18;94.30
64599;SHT31;51008;51.504;11.548;2024-03-08T00:38:51;-2.30;93.87
64599;SHT31;51008;51.504;11.548;2024-03-08T00:43:52;-2.36;93.84
64599;SHT31;51008;51.504;11.548;2024-03-08T00:48:53;-2.37;94.45
64599;SHT31;51008;51.504;11.548;2024-03-08T00:53:54;-2.42;94.10
64599;SHT31;51008;51.504;11.548;2024-03-08T00:58:54;-2.39;94.47
64599;SHT31;51008;51.504;11.548;2024-03-08T01:03:55;-2.44;93.89
64599;SHT31;51008;51.504;11.548;2024-03-08T01:08:57;-2.49;94.50
64599;SHT31;51008;51.504;11.548;2024-03-08T01:13:58;-2.53;94.55
64599;SHT31;51008;51.504;11.548;2024-03-08T01:18:59;-2.58;94.07
64599;SHT31;51008;51.504;11.548;2024-03-08T01:24:00;-2.56;94.68
64599;SHT31;51008;51.504;11.548;2024-03-08T01:29:03;-2.60;94.56
64599;SHT31;51008;51.504;11.548;2024-03-08T01:34:04;-2.71;94.21
64599;SHT31;51008;51.504;11.548;2024-03-08T01:39:05;-2.77;94.68
64599;SHT31;51008;51.504;11.548;2024-03-08T01:44:06;-2.85;94.08
64599;SHT31;51008;51.504;11.548;2024-03-08T01:49:07;-2.88;94.34
64599;SHT31;51008;51.504;11.548;2024-03-08T01:54:08;-2.82;94.77
64599;SHT31;51008;51.504;11.548;2024-03-08T01:59:09;-2.92;94.47
64599;SHT31;51008;51.504;11.548;2024-03-08T02:04:10;-2.89;94.86
64599;SHT31;51008;51.504;11.548;2024-03-08T02:09:11;-2.92;94.77
64599;SHT31;51008;51.504;11.548;2024-03-08T02:14:12;-2.99;94.71
64599;SHT31;51008;51.504;11.548;2024-03-08T02:19:13;-3.13;94.22
64599;SHT31;51008;51.504;11.548;2024-03-08T02:24:14;-3.12;95.24
64599;SHT31;51008;51.504;11.548;2024-03-08T02:29:16;-3.17;94.55
64599;SHT31;51008;51.504;11.548;2024-03-08T02:34:17;-3.16;95.17
64599;SHT31;51008;51.504;11.548;2024-03-08T02:39:18;-3.20;95.08
64599;SHT31;51008;51.504;11.548;2024-03-08T02:44:19;-3.23;94.83
64599;SHT31;51008;51.504;11.548;2024-03-08T02:49:20;-3.30;94.67
64599;SHT31;51008;51.504;11.548;2024-03-08T02:54:21;-3.33;95.28
64599;SHT31;51008;51.504;11.548;2024-03-08T02:59:22;-3.36;94.89
64599;SHT31;51008;51.504;11.548;2024-03-08T03:04:23;-3.36;95.71
64599;SHT31;51008;51.504;11.548;2024-03-08T03:09:24;-3.41;94.85
64599;SHT31;51008;51.504;11.548;2024-03-08T03:14:25;-3.44;95.37
64599;SHT31;51008;51.504;11.548;2024-03-08T03:19:26;-3.52;94.75
64599;SHT31;51008;51.504;11.548;2024-03-08T03:24:27;-3.52;95.02
64599;SHT31;51008;51.504;11.548;2024-03-08T03:29:28;-3.47;95.09
64599;SHT31;51008;51.504;11.548;2024-03-08T03:34:29;-3.43;95.76
64599;SHT31;51008;51.504;11.548;2024-03-08T03:39:33;-3.43;95.43
64599;SHT31;51008;51.504;11.548;2024-03-08T03:44:34;-3.39;95.80
64599;SHT31;51008;51.504;11.548;2024-03-08T03:49:35;-3.40;95.62
64599;SHT31;51008;51.504;11.548;2024-03-08T03:54:36;-3.41;95.74
64599;SHT31;51008;51.504;11.548;2024-03-08T03:59:37;-3.43;95.66
64599;SHT31;51008;51.504;11.548;2024-03-08T04:04:38;-3.43;95.70
64599;SHT31;51008;51.504;11.548;2024-03-08T04:09:39;-3.46;95.61
64599;SHT31;51008;51.504;11.548;2024-03-08T04:14:41;-3.51;95.39
64599;SHT31;51008;51.504;11.548;2024-03-08T04:19:42;-3.54;95.42
64599;SHT31;51008;51.504;11.548;2024-03-08T04:24:44;-3.54;95.44
64599;SHT31;51008;51.504;11.548;2024-03-08T04:29:45;-3.55;95.74
64599;SHT31;51008;51.504;11.548;2024-03-08T04:34:46;-3.60;95.67
64599;SHT31;51008;51.504;11.548;2024-03-08T04:39:48;-3.58;95.54
64599;SHT31;51008;51.504;11.548;2024-03-08T04:44:49;-3.62;95.75
64599;SHT31;51008;51.504;11.548;2024-03-08T04:49:50;-3.62;95.64
64599;SHT31;51008;51.504;11.548;2024-03-08T04:54:51;-3.61;95.80
64599;SHT31;51008;51.504;11.548;2024-03-08T04:59:52;-3.62;96.09
64599;SHT31;51008;51.504;11.548;2024-03-08T05:04:53;-3.60;96.37
64599;SHT31;51008;51.504;11.548;2024-03-08T05:09:54;-3.65;96.00
64599;SHT31;51008;51.504;11.548;2024-03-08T05:14:55;-3.69;95.94
64599;SHT31;51008;51.504;11.548;2024-03-08T05:19:56;-3.71;96.01
64599;SHT31;51008;51.504;11.548;2024-03-08T05:24:57;-3.72;96.51
64599;SHT31;51008;51.504;11.548;2024-03-08T05:29:57;-3.75;95.96
64599;SHT31;51008;51.504;11.548;2024-03-08T05:34:59;-3.77;96.04
64599;SHT31;51008;51.504;11.548;2024-03-08T05:39:59;-3.78;96.13
64599;SHT31;51008;51.504;11.548;2024-03-08T05:45:00;-3.78;96.08
64599;SHT31;51008;51.504;11.548;2024-03-08T05:50:02;-3.74;96.67
64599;SHT31;51008;51.504;11.548;2024-03-08T05:55:03;-3.65;96.49
64599;SHT31;51008;51.504;11.548;2024-03-08T06:00:04;-3.55;96.94
64599;SHT31;51008;51.504;11.548;2024-03-08T06:05:13;-3.52;96.42
64599;SHT31;51008;51.504;11.548;2024-03-08T06:10:14;-3.41;96.92
64599;SHT31;51008;51.504;11.548;2024-03-08T06:15:15;-3.37;96.87
64599;SHT31;51008;51.504;11.548;2024-03-08T06:20:16;-3.23;96.53
64599;SHT31;51008;51.504;11.548;2024-03-08T06:25:17;-3.10;96.66
64599;SHT31;51008;51.504;11.548;2024-03-08T06:30:18;-2.93;96.70
64599;SHT31;51008;51.504;11.548;2024-03-08T06:35:19;-2.74;96.59
64599;SHT31;51008;51.504;11.548;2024-03-08T06:40:20;-2.56;96.49
64599;SHT31;51008;51.504;11.548;2024-03-08T06:45:21;-2.33;96.44
64599;SHT31;51008;51.504;11.548;2024-03-08T06:50:22;-2.10;96.50
64599;SHT31;51008;51.504;11.548;2024-03-08T06:55:23;-1.82;96.62
64599;SHT31;51008;51.504;11.548;2024-03-08T07:00:24;-1.40;96.48
64599;SHT31;51008;51.504;11.548;2024-03-08T07:05:25;-0.76;96.17
64599;SHT31;51008;51.504;11.548;2024-03-08T07:10:26;-0.18;95.33
64599;SHT31;51008;51.504;11.548;2024-03-08T07:15:27;0.21;93.89
64599;SHT31;51008;51.504;11.548;2024-03-08T07:20:28;0.82;93.02
64599;SHT31;51008;51.504;11.548;2024-03-08T07:25:29;1.37;90.87
64599;SHT31;51008;51.504;11.548;2024-03-08T07:30:30;1.89;89.68
64599;SHT31;51008;51.504;11.548;2024-03-08T07:35:31;2.31;86.73
64599;SHT31;51008;51.504;11.548;2024-03-08T07:40:35;2.67;85.69
64599;SHT31;51008;51.504;11.548;2024-03-08T07:45:39;3.03;83.84
64599;SHT31;51008;51.504;11.548;2024-03-08T07:50:40;3.40;83.77
64599;SHT31;51008;51.504;11.548;2024-03-08T07:55:41;3.64;81.51
64599;SHT31;51008;51.504;11.548;2024-03-08T08:00:42;3.69;81.44
64599;SHT31;51008;51.504;11.548;2024-03-08T08:05:43;3.93;81.18
64599;SHT31;51008;51.504;11.548;2024-03-08T08:10:44;4.21;79.85
64599;SHT31;51008;51.504;11.548;2024-03-08T08:15:45;4.39;78.23
64599;SHT31;51008;51.504;11.548;2024-03-08T08:20:46;4.60;78.52
64599;SHT31;51008;51.504;11.548;2024-03-08T08:25:47;5.05;77.80
64599;SHT31;51008;51.504;11.548;2024-03-08T08:30:48;4.75;76.94
64599;SHT31;51008;51.504;11.548;2024-03-08T08:35:49;4.78;77.32
64599;SHT31;51008;51.504;11.548;2024-03-08T08:40:50;5.23;75.48
64599;SHT31;51008;51.504;11.548;2024-03-08T08:45:51;5.25;75.78
64599;SHT31;51008;51.504;11.548;2024-03-08T08:50:52;5.20;75.56
64599;SHT31;51008;51.504;11.548;2024-03-08T08:55:53;5.64;74.82
64599;SHT31;51008;51.504;11.548;2024-03-08T09:00:54;6.25;74.53
64599;SHT31;51008;51.504;11.548;2024-03-08T09:05:55;6.09;73.51
64599;SHT31;51008;51.504;11.548;2024-03-08T09:10:56;6.20;73.84
64599;SHT31;51008;51.504;11.548;2024-03-08T09:16:00;6.55;73.96
64599;SHT31;51008;51.504;11.548;2024-03-08T09:21:02;6.89;72.63
64599;SHT31;51008;51.504;11.548;2024-03-08T09:26:03;6.86;72.82
64599;SHT31;51008;51.504;11.548;2024-03-08T09:31:04;7.00;72.55
64599;SHT31;51008;51.504;11.548;2024-03-08T09:36:08;6.86;72.92
64599;SHT31;51008;51.504;11.548;2024-03-08T09:41:09;7.20;72.02
64599;SHT31;51008;51.504;11.548;2024-03-08T09:46:11;7.19;72.46
64599;SHT31;51008;51.504;11.548;2024-03-08T09:51:13;6.99;72.41
64599;SHT31;51008;51.504;11.548;2024-03-08T09:56:14;6.99;72.46
64599;SHT31;51008;51.504;11.548;2024-03-08T10:01:15;7.22;72.57
64599;SHT31;51008;51.504;11.548;2024-03-08T10:06:16;7.47;71.48
64599;SHT31;51008;51.504;11.548;2024-03-08T10:11:18;7.57;71.73
64599;SHT31;51008;51.504;11.548;2024-03-08T10:16:19;7.79;71.98
64599;SHT31;51008;51.504;11.548;2024-03-08T10:21:20;8.11;70.51
64599;SHT31;51008;51.504;11.548;2024-03-08T10:26:21;8.20;69.98
64599;SHT31;51008;51.504;11.548;2024-03-08T10:31:22;7.93;70.49
64599;SHT31;51008;51.504;11.548;2024-03-08T10:36:23;7.79;70.89
64599;SHT31;51008;51.504;11.548;2024-03-08T10:41:24;8.07;70.83
64599;SHT31;51008;51.504;11.548;2024-03-08T10:47:03;8.56;70.08
64599;SHT31;51008;51.504;11.548;2024-03-08T10:52:09;8.30;68.47
64599;SHT31;51008;51.504;11.548;2024-03-08T10:57:13;8.33;68.45
64599;SHT31;51008;51.504;11.548;2024-03-08T11:02:16;7.99;69.23
64599;SHT31;51008;51.504;11.548;2024-03-08T11:07:17;8.31;68.02
64599;SHT31;51008;51.504;11.548;2024-03-08T11:12:22;8.40;68.26
64599;SHT31;51008;51.504;11.548;2024-03-08T11:17:40;8.76;67.86
64599;SHT31;51008;51.504;11.548;2024-03-08T11:22:55;8.36;68.04
64599;SHT31;51008;51.504;11.548;2024-03-08T11:28:10;8.77;67.17
64599;SHT31;51008;51.504;11.548;2024-03-08T11:33:12;8.42;68.38
64599;SHT31;51008;51.504;11.548;2024-03-08T11:38:13;8.37;67.37
64599;SHT31;51008;51.504;11.548;2024-03-08T11:43:14;8.48;67.70
64599;SHT31;51008;51.504;11.548;2024-03-08T11:48:15;8.69;67.46
64599;SHT31;51008;51.504;11.548;2024-03-08T11:53:16;8.56;67.39
64599;SHT31;51008;51.504;11.548;2024-03-08T11:58:17;8.56;68.22
64599;SHT31;51008;51.504;11.548;2024-03-08T12:03:18;8.09;66.93
64599;SHT31;51008;51.504;11.548;2024-03-08T12:08:19;8.41;68.61
64599;SHT31;51008;51.504;11.548;2024-03-08T12:13:20;7.93;68.28
64599;SHT31;51008;51.504;11.548;2024-03-08T12:18:21;7.86;69.14
64599;SHT31;51008;51.504;11.548;2024-03-08T12:23:23;8.45;68.53
64599;SHT31;51008;51.504;11.548;2024-03-08T12:28:26;8.89;66.43
64599;SHT31;51008;51.504;11.548;2024-03-08T12:33:27;8.97;65.77
64599;SHT31;51008;51.504;11.548;2024-03-08T12:38:28;8.99;65.42
64599;SHT31;51008;51.504;11.548;2024-03-08T12:43:29;8.99;66.30
64599;SHT31;51008;51.504;11.548;2024-03-08T12:48:34;9.06;66.00
64599;SHT31;51008;51.504;11.548;2024-03-08T12:53:35;8.99;65.14
64599;SHT31;51008;51.504;11.548;2024-03-08T12:58:37;9.01;65.10
64599;SHT31;51008;51.504;11.548;2024-03-08T13:03:38;9.28;65.39
64599;SHT31;51008;51.504;11.548;2024-03-08T13:08:39;9.18;65.34
64599;SHT31;51008;51.504;11.548;2024-03-08T13:13:41;9.11;65.17
64599;SHT31;51008;51.504;11.548;2024-03-08T13:18:42;8.71;66.12
64599;SHT31;51008;51.504;11.548;2024-03-08T13:23:44;8.77;65.96
64599;SHT31;51008;51.504;11.548;2024-03-08T13:28:45;8.82;65.96
64599;SHT31;51008;51.504;11.548;2024-03-08T13:33:47;8.86;65.93
64599;SHT31;51008;51.504;11.548;2024-03-08T13:38:48;9.13;65.03
64599;SHT31;51008;51.504;11.548;2024-03-08T13:43:49;9.03;65.23
64599;SHT31;51008;51.504;11.548;2024-03-08T13:48:50;8.97;65.96
64599;SHT31;51008;51.504;11.548;2024-03-08T13:53:52;8.86;66.04
64599;SHT31;51008;51.504;11.548;2024-03-08T13:58:53;8.90;66.06
64599;SHT31;51008;51.504;11.548;2024-03-08T14:03:54;8.90;66.36
64599;SHT31;51008;51.504;11.548;2024-03-08T14:08:55;8.99;67.51
64599;SHT31;51008;51.504;11.548;2024-03-08T14:13:56;8.99;67.11
64599;SHT31;51008;51.504;11.548;2024-03-08T14:18:57;9.03;67.79
64599;SHT31;51008;51.504;11.548;2024-03-08T14:23:58;8.93;68.08
64599;SHT31;51008;51.504;11.548;2024-03-08T14:28:59;8.89;67.90
64599;SHT31;51008;51.504;11.548;2024-03-08T14:34:02;8.87;69.03
64599;SHT31;51008;51.504;11.548;2024-03-08T14:39:03;8.69;68.26
64599;SHT31;51008;51.504;11.548;2024-03-08T14:44:04;8.66;69.76
64599;SHT31;51008;51.504;11.548;2024-03-08T14:49:05;8.64;69.02
64599;SHT31;51008;51.504;11.548;2024-03-08T14:54:06;8.64;69.69
64599;SHT31;51008;51.504;11.548;2024-03-08T14:59:07;8.45;68.92
64599;SHT31;51008;51.504;11.548;2024-03-08T15:04:11;8.42;69.83
64599;SHT31;51008;51.504;11.548;2024-03-08T15:09:12;8.45;70.30
64599;SHT31;51008;51.504;11.548;2024-03-08T15:14:13;8.36;69.66
64599;SHT31;51008;51.504;11.548;2024-03-08T15:19:14;8.24;69.07
64599;SHT31;51008;51.504;11.548;2024-03-08T15:24:15;8.17;69.97
64599;SHT31;51008;51.504;11.548;2024-03-08T15:29:16;8.04;69.76
64599;SHT31;51008;51.504;11.548;2024-03-08T15:34:17;7.94;69.50
64599;SHT31;51008;51.504;11.548;2024-03-08T15:39:18;7.89;69.40
64599;SHT31;51008;51.504;11.548;2024-03-08T15:44:20;7.76;69.68
64599;SHT31;51008;51.504;11.548;2024-03-08T15:49:21;7.72;70.22
64599;SHT31;51008;51.504;11.548;2024-03-08T15:54:22;7.65;71.18
64599;SHT31;51008;51.504;11.548;2024-03-08T15:59:23;7.58;70.92
64599;SHT31;51008;51.504;11.548;2024-03-08T16:04:24;7.51;71.23
64599;SHT31;51008;51.504;11.548;2024-03-08T16:09:25;7.44;72.04
64599;SHT31;51008;51.504;11.548;2024-03-08T16:14:26;7.31;72.35
64599;SHT31;51008;51.504;11.548;2024-03-08T16:19:27;7.24;73.04
64599;SHT31;51008;51.504;11.548;2024-03-08T16:24:28;7.13;72.86
64599;SHT31;51008;51.504;11.548;2024-03-08T16:29:29;7.02;73.19
64599;SHT31;51008;51.504;11.548;2024-03-08T16:34:29;6.89;73.75
64599;SHT31;51008;51.504;11.548;2024-03-08T16:39:30;6.78;73.87
64599;SHT31;51008;51.504;11.548;2024-03-08T16:44:31;6.67;74.40
64599;SHT31;51008;51.504;11.548;2024-03-08T16:49:32;6.51;74.70
64599;SHT31;51008;51.504;11.548;2024-03-08T16:54:34;6.34;75.27
64599;SHT31;51008;51.504;11.548;2024-03-08T16:59:35;6.20;75.64
64599;SHT31;51008;51.504;11.548;2024-03-08T17:04:36;6.15;75.86
64599;SHT31;51008;51.504;11.548;2024-03-08T17:09:37;6.02;75.79
64599;SHT31;51008;51.504;11.548;2024-03-08T17:14:39;5.95;76.10
64599;SHT31;51008;51.504;11.548;2024-03-08T17:19:40;5.79;76.46
64599;SHT31;51008;51.504;11.548;2024-03-08T17:24:41;5.65;76.96
64599;SHT31;51008;51.504;11.548;2024-03-08T17:29:42;5.47;77.31
64599;SHT31;51008;51.504;11.548;2024-03-08T17:35:01;5.32;77.94
64599;SHT31;51008;51.504;11.548;2024-03-08T17:40:03;5.23;78.14
64599;SHT31;51008;51.504;11.548;2024-03-08T17:45:04;5.16;78.29
64599;SHT31;51008;51.504;11.548;2024-03-08T17:50:06;5.09;78.36
64599;SHT31;51008;51.504;11.548;2024-03-08T17:55:08;4.87;78.91
64599;SHT31;51008;51.504;11.548;2024-03-08T18:00:11;4.73;79.23
64599;SHT31;51008;51.504;11.548;2024-03-08T18:05:12;4.58;79.46
64599;SHT31;51008;51.504;11.548;2024-03-08T18:10:13;4.39;79.70
64599;SHT31;51008;51.504;11.548;2024-03-08T18:15:15;4.12;80.52
64599;SHT31;51008;51.504;11.548;2024-03-08T18:20:17;4.02;80.90
64599;SHT31;51008;51.504;11.548;2024-03-08T18:25:18;3.93;81.28
64599;SHT31;51008;51.504;11.548;2024-03-08T18:30:19;3.84;81.44
64599;SHT31;51008;51.504;11.548;2024-03-08T18:35:20;3.78;81.67
64599;SHT31;51008;51.504;11.548;2024-03-08T18:40:22;3.64;81.78
64599;SHT31;51008;51.504;11.548;2024-03-08T18:45:23;3.53;81.91
64599;SHT31;51008;51.504;11.548;2024-03-08T18:50:25;3.42;82.26
64599;SHT31;51008;51.504;11.548;2024-03-08T18:55:26;3.43;82.81
64599;SHT31;51008;51.504;11.548;2024-03-08T19:00:27;3.38;83.19
64599;SHT31;51008;51.504;11.548;2024-03-08T19:05:28;3.48;83.29
64599;SHT31;51008;51.504;11.548;2024-03-08T19:10:29;3.52;83.11
64599;SHT31;51008;51.504;11.548;2024-03-08T19:15:31;3.49;83.11
64599;SHT31;51008;51.504;11.548;2024-03-08T19:20:32;3.42;83.20
64599;SHT31;51008;51.504;11.548;2024-03-08T19:25:34;3.42;83.45
64599;SHT31;51008;51.504;11.548;2024-03-08T19:30:35;3.42;83.61
64599;SHT31;51008;51.504;11.548;2024-03-08T19:35:37;3.39;83.75
64599;SHT31;51008;51.504;11.548;2024-03-08T19:40:38;3.25;83.63
64599;SHT31;51008;51.504;11.548;2024-03-08T19:45:39;3.08;83.79
64599;SHT31;51008;51.504;11.548;2024-03-08T19:50:40;2.94;84.48
64599;SHT31;51008;51.504;11.548;2024-03-08T19:55:42;2.87;85.02
64599;SHT31;51008;51.504;11.548;2024-03-08T20:00:43;2.87;85.35
64599;SHT31;51008;51.504;11.548;2024-03-08T20:05:44;2.96;86.04
64599;SHT31;51008;51.504;11.548;2024-03-08T20:10:45;2.86;86.35
64599;SHT31;51008;51.504;11.548;2024-03-08T20:15:46;2.79;86.59
64599;SHT31;51008;51.504;11.548;2024-03-08T20:20:47;2.67;86.94
64599;SHT31;51008;51.504;11.548;2024-03-08T20:25:48;2.56;87.24
64599;SHT31;51008;51.504;11.548;2024-03-08T20:30:49;2.52;88.13
64599;SHT31;51008;51.504;11.548;2024-03-08T20:35:50;2.49;88.22
64599;SHT31;51008;51.504;11.548;2024-03-08T20:40:51;2.49;88.57
64599;SHT31;51008;51.504;11.548;2024-03-08T20:45:52;2.46;88.52
64599;SHT31;51008;51.504;11.548;2024-03-08T20:50:54;2.39;88.90
64599;SHT31;51008;51.504;11.548;2024-03-08T20:55:55;2.45;89.83
64599;SHT31;51008;51.504;11.548;2024-03-08T21:00:56;2.46;89.55
64599;SHT31;51008;51.504;11.548;2024-03-08T21:05:57;2.41;89.78
64599;SHT31;51008;51.504;11.548;2024-03-08T21:10:58;2.32;90.07
64599;SHT31;51008;51.504;11.548;2024-03-08T21:15:59;2.21;90.58
64599;SHT31;51008;51.504;11.548;2024-03-08T21:21:00;2.15;90.86
64599;SHT31;51008;51.504;11.548;2024-03-08T21:26:01;2.07;90.92
64599;SHT31;51008;51.504;11.548;2024-03-08T21:31:21;1.91;91.31
64599;SHT31;51008;51.504;11.548;2024-03-08T21:36:22;1.79;91.69
64599;SHT31;51008;51.504;11.548;2024-03-08T21:41:23;1.87;92.86
64599;SHT31;51008;51.504;11.548;2024-03-08T21:46:24;2.03;93.25
64599;SHT31;51008;51.504;11.548;2024-03-08T21:51:25;2.13;93.47
64599;SHT31;51008;51.504;11.548;2024-03-08T21:56:26;2.18;93.49
64599;SHT31;51008;51.504;11.548;2024-03-08T22:01:28;2.08;93.29
64599;SHT31;51008;51.504;11.548;2024-03-08T22:06:29;1.94;93.50
64599;SHT31;51008;51.504;11.548;2024-03-08T22:11:30;1.86;93.94
64599;SHT31;51008;51.504;11.548;2024-03-08T22:16:31;1.82;94.44
64599;SHT31;51008;51.504;11.548;2024-03-08T22:21:33;1.86;94.64
64599;SHT31;51008;51.504;11.548;2024-03-08T22:26:34;1.82;94.69
64599;SHT31;51008;51.504;11.548;2024-03-08T22:31:36;1.74;94.63
64599;SHT31;51008;51.504;11.548;2024-03-08T22:36:37;1.69;95.08
64599;SHT31;51008;51.504;11.548;2024-03-08T22:41:38;1.63;95.20
64599;SHT31;51008;51.504;11.548;2024-03-08T22:46:39;1.63;95.45
64599;SHT31;51008;51.504;11.548;2024-03-08T22:51:40;1.62;95.50
64599;SHT31;51008;51.504;11.548;2024-03-08T22:56:42;1.58;95.71
64599;SHT31;51008;51.504;11.548;2024-03-08T23:01:43;1.49;95.86
64599;SHT31;51008;51.504;11.548;2024-03-08T23:06:44;1.51;96.13
64599;SHT31;51008;51.504;11.548;2024-03-08T23:11:45;1.41;96.19
64599;SHT31;51008;51.504;11.548;2024-03-08T23:16:46;1.26;96.19
64599;SHT31;51008;51.504;11.548;2024-03-08T23:21:47;1.18;96.71
64599;SHT31;51008;51.504;11.548;2024-03-08T23:26:48;1.13;96.78
64599;SHT31;51008;51.504;11.548;2024-03-08T23:31:49;1.14;96.86
64599;SHT31;51008;51.504;11.548;2024-03-08T23:36:50;1.07;97.01
64599;SHT31;51008;51.504;11.548;2024-03-08T23:41:51;1.03;97.14
64599;SHT31;51008;51.504;11.548;2024-03-08T23:46:52;1.01;97.21
64599;SHT31;51008;51.504;11.548;2024-03-08T23:51:53;0.93;97.27
64599;SHT31;51008;51.504;11.548;2024-03-08T23:56:54;0.89;97.26
